Poskin, Wisconsin
Current Conditions -  °F | °C
As of 5:55 PM on Saturday 25 Oct 2014 (Local Time) from KRPD Reporting Station
Clear Clear  
Wind Chill: 56°   Ceiling: Unl
Heat Index: 56°   Visibility: 10mi
Dew Point: 24°   Wind: 9mph
Humidity: 28%   Direction: 280°W
Pressure: 29.99"   Gusts: NA
Location:  45.3978°N, 91.8834°W
Report Text: KRPD 252255Z AUTO 28008KT 10SM CLR 14/M05 A2999 RMK AO2 T01351047
Loading
Personal Weather Stations






























Interactive Weather Map
Tropical Storm Tracking
New forecast layout! Learn more

10-Day Weather Forecast

Advertisements
Track Severe Weather on mobile